Terminal Aerodrome Forecast
Issued by NWS

Home | Current Version | Previous Version | Text Only | Print | Product List | Glossary On
Versions: 1 2 3 4 5 6 7 8 9 10 11 12 13 14 15 16 17
000
FTUS46 KSEW 191700
TAFCLM
TAF
KCLM 191728Z 1918/2018 28006KT P6SM -RA OVC050
     FM192000 30008KT P6SM -SHRA BKN050 OVC070
     FM200300 28007KT P6SM VCSH BKN050 BKN070
     FM201000 25005KT P6SM BKN050=

USA.gov is the U.S. government's official web portal to all federal, state and local government web resources and services.